sensor_id;sensor_type;location;lat;lon;timestamp;P1;durP1;ratioP1;P2;durP2;ratioP2
25319;SDS011;13256;49.012;8.610;2023-12-04T00:03:09;28.40;;;12.02;;
25319;SDS011;13256;49.012;8.610;2023-12-04T00:08:59;31.42;;;11.35;;
25319;SDS011;13256;49.012;8.610;2023-12-04T00:11:30;22.45;;;10.40;;
25319;SDS011;13256;49.012;8.610;2023-12-04T00:16:47;23.52;;;9.15;;
25319;SDS011;13256;49.012;8.610;2023-12-04T00:19:18;21.00;;;9.68;;
25319;SDS011;13256;49.012;8.610;2023-12-04T00:24:35;30.45;;;12.40;;
25319;SDS011;13256;49.012;8.610;2023-12-04T00:42:08;23.83;;;10.93;;
25319;SDS011;13256;49.012;8.610;2023-12-04T01:08:42;24.50;;;11.13;;
25319;SDS011;13256;49.012;8.610;2023-12-04T01:14:16;29.58;;;11.50;;
25319;SDS011;13256;49.012;8.610;2023-12-04T01:25:05;21.50;;;9.82;;
25319;SDS011;13256;49.012;8.610;2023-12-04T01:42:46;22.08;;;9.27;;
25319;SDS011;13256;49.012;8.610;2023-12-04T01:49:01;22.00;;;9.25;;
25319;SDS011;13256;49.012;8.610;2023-12-04T01:59:43;24.15;;;9.10;;
25319;SDS011;13256;49.012;8.610;2023-12-04T02:02:13;24.23;;;9.65;;
25319;SDS011;13256;49.012;8.610;2023-12-04T02:07:43;18.35;;;8.00;;
25319;SDS011;13256;49.012;8.610;2023-12-04T02:29:08;16.50;;;8.97;;
25319;SDS011;13256;49.012;8.610;2023-12-04T02:34:42;26.27;;;10.45;;
25319;SDS011;13256;49.012;8.610;2023-12-04T02:45:36;13.38;;;7.13;;
25319;SDS011;13256;49.012;8.610;2023-12-04T03:12:30;19.45;;;9.18;;
25319;SDS011;13256;49.012;8.610;2023-12-04T03:29:18;19.10;;;9.05;;
25319;SDS011;13256;49.012;8.610;2023-12-04T03:49:46;16.02;;;7.60;;
25319;SDS011;13256;49.012;8.610;2023-12-04T04:06:43;12.25;;;5.28;;
25319;SDS011;13256;49.012;8.610;2023-12-04T04:33:28;13.82;;;6.72;;
25319;SDS011;13256;49.012;8.610;2023-12-04T04:51:05;14.30;;;5.82;;
25319;SDS011;13256;49.012;8.610;2023-12-04T04:53:32;13.73;;;6.53;;
25319;SDS011;13256;49.012;8.610;2023-12-04T04:55:59;13.57;;;6.38;;
25319;SDS011;13256;49.012;8.610;2023-12-04T04:58:26;17.05;;;6.72;;
25319;SDS011;13256;49.012;8.610;2023-12-04T05:21:22;14.95;;;7.07;;
25319;SDS011;13256;49.012;8.610;2023-12-04T05:26:51;11.02;;;6.40;;
25319;SDS011;13256;49.012;8.610;2023-12-04T05:29:20;11.80;;;6.07;;
25319;SDS011;13256;49.012;8.610;2023-12-04T05:31:48;15.18;;;7.80;;
25319;SDS011;13256;49.012;8.610;2023-12-04T05:34:24;13.63;;;6.82;;
25319;SDS011;13256;49.012;8.610;2023-12-04T05:36:57;16.17;;;8.18;;
25319;SDS011;13256;49.012;8.610;2023-12-04T05:39:23;18.00;;;7.63;;
25319;SDS011;13256;49.012;8.610;2023-12-04T05:48:47;15.68;;;7.32;;
25319;SDS011;13256;49.012;8.610;2023-12-04T05:51:16;16.05;;;7.80;;
25319;SDS011;13256;49.012;8.610;2023-12-04T05:53:49;15.48;;;7.82;;
25319;SDS011;13256;49.012;8.610;2023-12-04T05:56:16;14.25;;;6.90;;
25319;SDS011;13256;49.012;8.610;2023-12-04T05:58:42;15.40;;;7.55;;
25319;SDS011;13256;49.012;8.610;2023-12-04T06:01:14;16.23;;;7.60;;
25319;SDS011;13256;49.012;8.610;2023-12-04T06:03:44;19.20;;;8.82;;
25319;SDS011;13256;49.012;8.610;2023-12-04T06:06:11;19.50;;;10.95;;
25319;SDS011;13256;49.012;8.610;2023-12-04T06:08:40;20.77;;;9.80;;
25319;SDS011;13256;49.012;8.610;2023-12-04T06:11:09;22.00;;;9.63;;
25319;SDS011;13256;49.012;8.610;2023-12-04T06:13:40;19.15;;;8.90;;
25319;SDS011;13256;49.012;8.610;2023-12-04T06:16:09;17.63;;;8.77;;
25319;SDS011;13256;49.012;8.610;2023-12-04T06:18:38;22.08;;;8.55;;
25319;SDS011;13256;49.012;8.610;2023-12-04T06:21:07;16.33;;;7.65;;
25319;SDS011;13256;49.012;8.610;2023-12-04T06:23:34;14.18;;;7.35;;
25319;SDS011;13256;49.012;8.610;2023-12-04T06:26:01;12.98;;;6.55;;
25319;SDS011;13256;49.012;8.610;2023-12-04T06:28:28;16.25;;;5.97;;
25319;SDS011;13256;49.012;8.610;2023-12-04T06:30:58;12.20;;;6.55;;
25319;SDS011;13256;49.012;8.610;2023-12-04T06:33:25;16.73;;;7.47;;
25319;SDS011;13256;49.012;8.610;2023-12-04T06:35:52;15.27;;;7.85;;
25319;SDS011;13256;49.012;8.610;2023-12-04T06:38:19;15.13;;;7.30;;
25319;SDS011;13256;49.012;8.610;2023-12-04T06:40:54;12.65;;;6.25;;
25319;SDS011;13256;49.012;8.610;2023-12-04T06:43:23;16.85;;;8.18;;
25319;SDS011;13256;49.012;8.610;2023-12-04T06:45:50;22.00;;;9.70;;
25319;SDS011;13256;49.012;8.610;2023-12-04T06:48:17;16.70;;;8.63;;
25319;SDS011;13256;49.012;8.610;2023-12-04T06:50:46;16.52;;;7.82;;
25319;SDS011;13256;49.012;8.610;2023-12-04T06:53:16;14.45;;;7.05;;
25319;SDS011;13256;49.012;8.610;2023-12-04T06:55:43;11.95;;;6.35;;
25319;SDS011;13256;49.012;8.610;2023-12-04T06:58:16;14.68;;;6.53;;
25319;SDS011;13256;49.012;8.610;2023-12-04T07:00:43;11.60;;;6.50;;
25319;SDS011;13256;49.012;8.610;2023-12-04T07:03:12;14.50;;;7.50;;
25319;SDS011;13256;49.012;8.610;2023-12-04T07:05:45;15.20;;;6.85;;
25319;SDS011;13256;49.012;8.610;2023-12-04T07:08:11;21.98;;;7.72;;
25319;SDS011;13256;49.012;8.610;2023-12-04T07:10:38;13.85;;;6.85;;
25319;SDS011;13256;49.012;8.610;2023-12-04T07:13:06;18.88;;;7.85;;
25319;SDS011;13256;49.012;8.610;2023-12-04T07:15:34;14.02;;;7.47;;
25319;SDS011;13256;49.012;8.610;2023-12-04T07:18:04;17.10;;;8.23;;
25319;SDS011;13256;49.012;8.610;2023-12-04T07:20:30;14.68;;;7.35;;
25319;SDS011;13256;49.012;8.610;2023-12-04T07:22:58;17.40;;;8.45;;
25319;SDS011;13256;49.012;8.610;2023-12-04T07:25:25;11.63;;;6.18;;
25319;SDS011;13256;49.012;8.610;2023-12-04T07:27:55;13.98;;;7.35;;
25319;SDS011;13256;49.012;8.610;2023-12-04T07:30:25;15.18;;;7.90;;
25319;SDS011;13256;49.012;8.610;2023-12-04T07:32:52;22.40;;;7.90;;
25319;SDS011;13256;49.012;8.610;2023-12-04T07:35:48;23.55;;;9.57;;
25319;SDS011;13256;49.012;8.610;2023-12-04T07:38:42;25.75;;;10.25;;
25319;SDS011;13256;49.012;8.610;2023-12-04T07:41:10;21.45;;;8.15;;
25319;SDS011;13256;49.012;8.610;2023-12-04T07:43:46;22.13;;;8.80;;
25319;SDS011;13256;49.012;8.610;2023-12-04T07:46:15;25.45;;;9.43;;
25319;SDS011;13256;49.012;8.610;2023-12-04T07:48:44;22.17;;;8.93;;
25319;SDS011;13256;49.012;8.610;2023-12-04T07:51:16;14.35;;;7.28;;
25319;SDS011;13256;49.012;8.610;2023-12-04T07:53:46;16.40;;;7.15;;
25319;SDS011;13256;49.012;8.610;2023-12-04T07:56:44;11.40;;;6.25;;
25319;SDS011;13256;49.012;8.610;2023-12-04T07:59:12;16.33;;;7.32;;
25319;SDS011;13256;49.012;8.610;2023-12-04T08:01:41;12.23;;;6.25;;
25319;SDS011;13256;49.012;8.610;2023-12-04T08:04:09;16.33;;;6.95;;
25319;SDS011;13256;49.012;8.610;2023-12-04T08:06:35;14.82;;;6.93;;
25319;SDS011;13256;49.012;8.610;2023-12-04T08:09:02;12.50;;;6.35;;
25319;SDS011;13256;49.012;8.610;2023-12-04T08:11:45;14.98;;;6.85;;
25319;SDS011;13256;49.012;8.610;2023-12-04T08:14:17;13.40;;;7.20;;
25319;SDS011;13256;49.012;8.610;2023-12-04T08:16:47;18.17;;;9.75;;
25319;SDS011;13256;49.012;8.610;2023-12-04T08:19:15;16.27;;;9.35;;
25319;SDS011;13256;49.012;8.610;2023-12-04T08:21:42;15.40;;;8.27;;
25319;SDS011;13256;49.012;8.610;2023-12-04T08:24:09;13.38;;;6.57;;
25319;SDS011;13256;49.012;8.610;2023-12-04T08:26:36;13.15;;;6.93;;
25319;SDS011;13256;49.012;8.610;2023-12-04T08:29:03;15.30;;;8.23;;
25319;SDS011;13256;49.012;8.610;2023-12-04T08:31:33;16.52;;;7.80;;
25319;SDS011;13256;49.012;8.610;2023-12-04T08:34:02;16.45;;;7.63;;
25319;SDS011;13256;49.012;8.610;2023-12-04T08:36:28;14.90;;;6.90;;
25319;SDS011;13256;49.012;8.610;2023-12-04T08:39:13;16.20;;;7.47;;
25319;SDS011;13256;49.012;8.610;2023-12-04T08:41:40;18.83;;;7.78;;
25319;SDS011;13256;49.012;8.610;2023-12-04T08:44:17;16.88;;;8.15;;
25319;SDS011;13256;49.012;8.610;2023-12-04T08:46:46;15.63;;;7.85;;
25319;SDS011;13256;49.012;8.610;2023-12-04T08:49:16;18.95;;;8.40;;
25319;SDS011;13256;49.012;8.610;2023-12-04T08:51:43;21.77;;;9.93;;
25319;SDS011;13256;49.012;8.610;2023-12-04T08:54:15;19.48;;;9.07;;
25319;SDS011;13256;49.012;8.610;2023-12-04T08:57:09;19.85;;;9.82;;
25319;SDS011;13256;49.012;8.610;2023-12-04T08:59:36;16.70;;;7.78;;
25319;SDS011;13256;49.012;8.610;2023-12-04T09:02:05;16.15;;;7.78;;
25319;SDS011;13256;49.012;8.610;2023-12-04T09:04:42;13.02;;;7.63;;
25319;SDS011;13256;49.012;8.610;2023-12-04T09:07:09;113.65;;;28.13;;
25319;SDS011;13256;49.012;8.610;2023-12-04T09:09:56;27.45;;;12.13;;
25319;SDS011;13256;49.012;8.610;2023-12-04T09:12:23;30.70;;;13.32;;
25319;SDS011;13256;49.012;8.610;2023-12-04T09:14:53;21.10;;;11.48;;
25319;SDS011;13256;49.012;8.610;2023-12-04T09:17:20;21.17;;;10.50;;
25319;SDS011;13256;49.012;8.610;2023-12-04T09:19:47;25.63;;;12.57;;
25319;SDS011;13256;49.012;8.610;2023-12-04T09:22:14;22.80;;;12.07;;
25319;SDS011;13256;49.012;8.610;2023-12-04T09:24:47;22.35;;;10.07;;
25319;SDS011;13256;49.012;8.610;2023-12-04T09:27:17;16.02;;;7.47;;
25319;SDS011;13256;49.012;8.610;2023-12-04T09:29:44;20.95;;;11.10;;
25319;SDS011;13256;49.012;8.610;2023-12-04T09:32:13;19.02;;;8.55;;
25319;SDS011;13256;49.012;8.610;2023-12-04T09:34:40;88.07;;;22.08;;
25319;SDS011;13256;49.012;8.610;2023-12-04T09:37:06;21.58;;;9.38;;
25319;SDS011;13256;49.012;8.610;2023-12-04T09:39:38;33.95;;;11.82;;
25319;SDS011;13256;49.012;8.610;2023-12-04T09:42:09;37.47;;;12.75;;
25319;SDS011;13256;49.012;8.610;2023-12-04T09:47:38;22.33;;;11.38;;
25319;SDS011;13256;49.012;8.610;2023-12-04T09:50:06;17.73;;;8.98;;
25319;SDS011;13256;49.012;8.610;2023-12-04T09:52:36;17.02;;;7.60;;
25319;SDS011;13256;49.012;8.610;2023-12-04T09:55:03;15.77;;;8.52;;
25319;SDS011;13256;49.012;8.610;2023-12-04T09:57:34;20.63;;;8.63;;
25319;SDS011;13256;49.012;8.610;2023-12-04T10:00:03;18.52;;;9.68;;
25319;SDS011;13256;49.012;8.610;2023-12-04T10:02:38;18.13;;;8.93;;
25319;SDS011;13256;49.012;8.610;2023-12-04T10:05:07;19.05;;;8.65;;
25319;SDS011;13256;49.012;8.610;2023-12-04T10:07:36;21.70;;;10.57;;
25319;SDS011;13256;49.012;8.610;2023-12-04T10:10:04;20.90;;;9.40;;
25319;SDS011;13256;49.012;8.610;2023-12-04T10:12:35;18.65;;;9.23;;
25319;SDS011;13256;49.012;8.610;2023-12-04T10:15:07;18.38;;;8.77;;
25319;SDS011;13256;49.012;8.610;2023-12-04T10:17:41;15.52;;;7.40;;
25319;SDS011;13256;49.012;8.610;2023-12-04T10:20:11;17.15;;;8.45;;
25319;SDS011;13256;49.012;8.610;2023-12-04T10:22:53;17.67;;;9.27;;
25319;SDS011;13256;49.012;8.610;2023-12-04T10:25:25;22.92;;;10.65;;
25319;SDS011;13256;49.012;8.610;2023-12-04T10:28:08;23.23;;;10.18;;
25319;SDS011;13256;49.012;8.610;2023-12-04T10:30:39;22.38;;;10.70;;
25319;SDS011;13256;49.012;8.610;2023-12-04T10:33:10;23.17;;;10.77;;
25319;SDS011;13256;49.012;8.610;2023-12-04T10:35:40;24.48;;;8.50;;
25319;SDS011;13256;49.012;8.610;2023-12-04T10:38:11;19.45;;;9.40;;
25319;SDS011;13256;49.012;8.610;2023-12-04T10:40:40;17.48;;;8.65;;
25319;SDS011;13256;49.012;8.610;2023-12-04T10:45:47;15.43;;;8.80;;
25319;SDS011;13256;49.012;8.610;2023-12-04T10:48:15;14.32;;;8.85;;
25319;SDS011;13256;49.012;8.610;2023-12-04T10:50:45;18.27;;;8.60;;
25319;SDS011;13256;49.012;8.610;2023-12-04T10:53:16;24.90;;;10.32;;
25319;SDS011;13256;49.012;8.610;2023-12-04T10:55:45;24.83;;;10.43;;
25319;SDS011;13256;49.012;8.610;2023-12-04T10:58:15;28.95;;;12.48;;
25319;SDS011;13256;49.012;8.610;2023-12-04T11:00:45;19.25;;;9.95;;
25319;SDS011;13256;49.012;8.610;2023-12-04T11:03:21;31.92;;;12.63;;
25319;SDS011;13256;49.012;8.610;2023-12-04T11:06:05;21.23;;;10.93;;
25319;SDS011;13256;49.012;8.610;2023-12-04T11:08:37;19.13;;;9.95;;
25319;SDS011;13256;49.012;8.610;2023-12-04T11:14:21;14.70;;;7.93;;
25319;SDS011;13256;49.012;8.610;2023-12-04T11:16:54;19.98;;;8.93;;
25319;SDS011;13256;49.012;8.610;2023-12-04T11:22:25;16.30;;;8.40;;
25319;SDS011;13256;49.012;8.610;2023-12-04T11:24:52;18.73;;;10.18;;
25319;SDS011;13256;49.012;8.610;2023-12-04T11:27:31;16.83;;;8.73;;
25319;SDS011;13256;49.012;8.610;2023-12-04T11:32:44;14.45;;;7.72;;
25319;SDS011;13256;49.012;8.610;2023-12-04T11:35:29;14.95;;;8.25;;
25319;SDS011;13256;49.012;8.610;2023-12-04T11:37:56;15.77;;;8.43;;
25319;SDS011;13256;49.012;8.610;2023-12-04T11:40:24;18.50;;;8.07;;
25319;SDS011;13256;49.012;8.610;2023-12-04T11:42:55;19.33;;;9.60;;
25319;SDS011;13256;49.012;8.610;2023-12-04T11:45:27;22.67;;;9.18;;
25319;SDS011;13256;49.012;8.610;2023-12-04T11:48:00;15.88;;;8.60;;
25319;SDS011;13256;49.012;8.610;2023-12-04T11:50:29;18.67;;;8.90;;
25319;SDS011;13256;49.012;8.610;2023-12-04T11:52:57;17.88;;;8.73;;
25319;SDS011;13256;49.012;8.610;2023-12-04T11:55:25;21.33;;;10.40;;
25319;SDS011;13256;49.012;8.610;2023-12-04T11:57:55;23.80;;;11.48;;
25319;SDS011;13256;49.012;8.610;2023-12-04T12:00:26;15.35;;;8.45;;
25319;SDS011;13256;49.012;8.610;2023-12-04T12:05:48;17.30;;;8.32;;
25319;SDS011;13256;49.012;8.610;2023-12-04T12:08:20;17.17;;;8.43;;
25319;SDS011;13256;49.012;8.610;2023-12-04T12:10:49;18.05;;;8.02;;
25319;SDS011;13256;49.012;8.610;2023-12-04T12:13:16;15.75;;;7.97;;
25319;SDS011;13256;49.012;8.610;2023-12-04T12:15:46;16.63;;;7.65;;
25319;SDS011;13256;49.012;8.610;2023-12-04T12:18:16;12.38;;;7.70;;
25319;SDS011;13256;49.012;8.610;2023-12-04T12:20:44;14.43;;;8.48;;
25319;SDS011;13256;49.012;8.610;2023-12-04T12:23:13;19.52;;;8.43;;
25319;SDS011;13256;49.012;8.610;2023-12-04T12:25:42;19.55;;;8.60;;
25319;SDS011;13256;49.012;8.610;2023-12-04T12:28:09;15.65;;;8.02;;
25319;SDS011;13256;49.012;8.610;2023-12-04T12:30:36;18.25;;;8.43;;
25319;SDS011;13256;49.012;8.610;2023-12-04T12:33:04;15.55;;;7.40;;
25319;SDS011;13256;49.012;8.610;2023-12-04T12:35:32;17.27;;;8.38;;
25319;SDS011;13256;49.012;8.610;2023-12-04T12:37:59;12.82;;;7.05;;
25319;SDS011;13256;49.012;8.610;2023-12-04T12:40:29;13.35;;;7.28;;
25319;SDS011;13256;49.012;8.610;2023-12-04T12:43:08;14.23;;;7.75;;
25319;SDS011;13256;49.012;8.610;2023-12-04T12:45:42;19.27;;;8.63;;
25319;SDS011;13256;49.012;8.610;2023-12-04T12:48:13;19.38;;;9.23;;
25319;SDS011;13256;49.012;8.610;2023-12-04T12:50:44;19.15;;;8.98;;
25319;SDS011;13256;49.012;8.610;2023-12-04T12:53:16;23.17;;;9.70;;
25319;SDS011;13256;49.012;8.610;2023-12-04T12:55:44;20.27;;;10.45;;
25319;SDS011;13256;49.012;8.610;2023-12-04T12:58:11;22.70;;;10.18;;
25319;SDS011;13256;49.012;8.610;2023-12-04T13:00:40;21.80;;;10.20;;
25319;SDS011;13256;49.012;8.610;2023-12-04T13:03:16;24.50;;;12.95;;
25319;SDS011;13256;49.012;8.610;2023-12-04T13:05:44;19.10;;;9.63;;
25319;SDS011;13256;49.012;8.610;2023-12-04T13:10:46;21.48;;;9.88;;
25319;SDS011;13256;49.012;8.610;2023-12-04T13:13:17;27.02;;;12.35;;
25319;SDS011;13256;49.012;8.610;2023-12-04T13:15:46;22.42;;;12.18;;
25319;SDS011;13256;49.012;8.610;2023-12-04T13:18:18;17.63;;;9.77;;
25319;SDS011;13256;49.012;8.610;2023-12-04T13:20:46;24.30;;;10.68;;
25319;SDS011;13256;49.012;8.610;2023-12-04T13:23:16;20.67;;;9.90;;
25319;SDS011;13256;49.012;8.610;2023-12-04T13:25:46;18.70;;;9.52;;
25319;SDS011;13256;49.012;8.610;2023-12-04T13:28:15;19.83;;;9.65;;
25319;SDS011;13256;49.012;8.610;2023-12-04T13:30:54;20.42;;;10.50;;
25319;SDS011;13256;49.012;8.610;2023-12-04T13:33:23;20.67;;;10.10;;
25319;SDS011;13256;49.012;8.610;2023-12-04T13:38:26;18.25;;;10.55;;
25319;SDS011;13256;49.012;8.610;2023-12-04T13:41:03;18.45;;;9.93;;
25319;SDS011;13256;49.012;8.610;2023-12-04T13:44:32;15.98;;;8.70;;
25319;SDS011;13256;49.012;8.610;2023-12-04T13:46:59;16.25;;;9.07;;
25319;SDS011;13256;49.012;8.610;2023-12-04T13:49:27;19.10;;;9.80;;
25319;SDS011;13256;49.012;8.610;2023-12-04T13:51:54;16.48;;;8.20;;
25319;SDS011;13256;49.012;8.610;2023-12-04T13:54:27;17.25;;;9.05;;
25319;SDS011;13256;49.012;8.610;2023-12-04T13:57:13;14.63;;;8.18;;
25319;SDS011;13256;49.012;8.610;2023-12-04T14:00:40;16.95;;;8.18;;
25319;SDS011;13256;49.012;8.610;2023-12-04T14:03:08;17.63;;;9.05;;
25319;SDS011;13256;49.012;8.610;2023-12-04T14:05:36;20.73;;;9.73;;
25319;SDS011;13256;49.012;8.610;2023-12-04T14:08:03;19.08;;;9.23;;
25319;SDS011;13256;49.012;8.610;2023-12-04T14:10:37;18.15;;;9.25;;
25319;SDS011;13256;49.012;8.610;2023-12-04T14:13:05;25.80;;;10.75;;
25319;SDS011;13256;49.012;8.610;2023-12-04T14:15:35;21.85;;;10.65;;
25319;SDS011;13256;49.012;8.610;2023-12-04T14:18:04;16.93;;;9.03;;
25319;SDS011;13256;49.012;8.610;2023-12-04T14:20:32;20.48;;;9.13;;
25319;SDS011;13256;49.012;8.610;2023-12-04T14:22:59;28.55;;;12.50;;
25319;SDS011;13256;49.012;8.610;2023-12-04T14:25:29;23.52;;;9.93;;
25319;SDS011;13256;49.012;8.610;2023-12-04T14:27:59;16.55;;;8.40;;
25319;SDS011;13256;49.012;8.610;2023-12-04T14:30:28;12.63;;;6.72;;
25319;SDS011;13256;49.012;8.610;2023-12-04T14:33:01;16.15;;;9.00;;
25319;SDS011;13256;49.012;8.610;2023-12-04T14:35:28;14.50;;;8.52;;
25319;SDS011;13256;49.012;8.610;2023-12-04T14:37:57;18.63;;;9.48;;
25319;SDS011;13256;49.012;8.610;2023-12-04T14:40:51;12.57;;;7.35;;
25319;SDS011;13256;49.012;8.610;2023-12-04T14:43:18;14.98;;;6.90;;
25319;SDS011;13256;49.012;8.610;2023-12-04T14:45:49;15.30;;;6.88;;
25319;SDS011;13256;49.012;8.610;2023-12-04T14:48:16;11.98;;;6.15;;
25319;SDS011;13256;49.012;8.610;2023-12-04T14:50:43;12.90;;;6.40;;
25319;SDS011;13256;49.012;8.610;2023-12-04T14:53:12;14.35;;;6.85;;
25319;SDS011;13256;49.012;8.610;2023-12-04T14:55:58;10.30;;;6.47;;
25319;SDS011;13256;49.012;8.610;2023-12-04T14:58:26;10.00;;;5.32;;
25319;SDS011;13256;49.012;8.610;2023-12-04T15:01:12;11.45;;;5.97;;
25319;SDS011;13256;49.012;8.610;2023-12-04T15:03:58;11.40;;;5.40;;
25319;SDS011;13256;49.012;8.610;2023-12-04T15:07:02;7.97;;;4.65;;
25319;SDS011;13256;49.012;8.610;2023-12-04T15:09:49;22.95;;;7.32;;
25319;SDS011;13256;49.012;8.610;2023-12-04T15:12:39;15.15;;;6.15;;
25319;SDS011;13256;49.012;8.610;2023-12-04T15:15:39;9.63;;;4.32;;
25319;SDS011;13256;49.012;8.610;2023-12-04T15:18:30;8.15;;;4.50;;
25319;SDS011;13256;49.012;8.610;2023-12-04T15:21:12;10.07;;;5.47;;
25319;SDS011;13256;49.012;8.610;2023-12-04T15:23:50;6.32;;;4.03;;
25319;SDS011;13256;49.012;8.610;2023-12-04T15:26:17;5.07;;;3.40;;
25319;SDS011;13256;49.012;8.610;2023-12-04T15:28:48;91.70;;;28.90;;
25319;SDS011;13256;49.012;8.610;2023-12-04T15:31:17;91.43;;;35.10;;
25319;SDS011;13256;49.012;8.610;2023-12-04T15:33:48;15.13;;;7.45;;
25319;SDS011;13256;49.012;8.610;2023-12-04T15:36:15;11.43;;;6.35;;
25319;SDS011;13256;49.012;8.610;2023-12-04T15:38:48;8.52;;;3.78;;
25319;SDS011;13256;49.012;8.610;2023-12-04T15:41:16;6.80;;;3.85;;
25319;SDS011;13256;49.012;8.610;2023-12-04T15:43:49;7.60;;;3.40;;
25319;SDS011;13256;49.012;8.610;2023-12-04T15:46:46;4.10;;;2.47;;
25319;SDS011;13256;49.012;8.610;2023-12-04T15:49:14;3.95;;;2.38;;
25319;SDS011;13256;49.012;8.610;2023-12-04T15:51:42;3.97;;;2.20;;
25319;SDS011;13256;49.012;8.610;2023-12-04T15:54:09;5.10;;;2.65;;
25319;SDS011;13256;49.012;8.610;2023-12-04T15:56:36;8.98;;;2.80;;
25319;SDS011;13256;49.012;8.610;2023-12-04T15:59:03;8.27;;;3.65;;
25319;SDS011;13256;49.012;8.610;2023-12-04T16:01:30;12.35;;;5.05;;
25319;SDS011;13256;49.012;8.610;2023-12-04T16:03:57;10.52;;;4.75;;
25319;SDS011;13256;49.012;8.610;2023-12-04T16:06:24;4.53;;;3.22;;
25319;SDS011;13256;49.012;8.610;2023-12-04T16:08:52;15.25;;;5.43;;
25319;SDS011;13256;49.012;8.610;2023-12-04T16:11:24;6.47;;;3.42;;
25319;SDS011;13256;49.012;8.610;2023-12-04T16:13:50;13.18;;;7.68;;
25319;SDS011;13256;49.012;8.610;2023-12-04T16:16:19;13.40;;;7.55;;
25319;SDS011;13256;49.012;8.610;2023-12-04T16:18:46;9.93;;;5.63;;
25319;SDS011;13256;49.012;8.610;2023-12-04T16:21:13;15.05;;;7.53;;
25319;SDS011;13256;49.012;8.610;2023-12-04T16:23:43;11.38;;;5.93;;
25319;SDS011;13256;49.012;8.610;2023-12-04T16:26:15;17.25;;;7.93;;
25319;SDS011;13256;49.012;8.610;2023-12-04T16:28:47;13.60;;;7.07;;
25319;SDS011;13256;49.012;8.610;2023-12-04T16:31:19;15.07;;;8.10;;
25319;SDS011;13256;49.012;8.610;2023-12-04T16:36:41;18.98;;;10.00;;
25319;SDS011;13256;49.012;8.610;2023-12-04T16:39:18;20.27;;;9.07;;
25319;SDS011;13256;49.012;8.610;2023-12-04T16:44:17;16.50;;;9.68;;
25319;SDS011;13256;49.012;8.610;2023-12-04T16:46:47;12.07;;;6.47;;
25319;SDS011;13256;49.012;8.610;2023-12-04T16:49:22;10.88;;;3.88;;
25319;SDS011;13256;49.012;8.610;2023-12-04T16:51:52;10.98;;;6.18;;
25319;SDS011;13256;49.012;8.610;2023-12-04T16:54:20;5.20;;;3.20;;
25319;SDS011;13256;49.012;8.610;2023-12-04T16:56:50;7.45;;;3.05;;
25319;SDS011;13256;49.012;8.610;2023-12-04T16:59:19;6.55;;;2.95;;
25319;SDS011;13256;49.012;8.610;2023-12-04T17:01:47;5.70;;;3.05;;
25319;SDS011;13256;49.012;8.610;2023-12-04T17:04:14;6.07;;;3.55;;
25319;SDS011;13256;49.012;8.610;2023-12-04T17:06:42;5.65;;;3.00;;
25319;SDS011;13256;49.012;8.610;2023-12-04T17:09:09;4.45;;;2.70;;
25319;SDS011;13256;49.012;8.610;2023-12-04T17:11:41;7.05;;;4.20;;
25319;SDS011;13256;49.012;8.610;2023-12-04T17:14:13;8.65;;;4.93;;
25319;SDS011;13256;49.012;8.610;2023-12-04T17:16:39;6.90;;;3.92;;
25319;SDS011;13256;49.012;8.610;2023-12-04T17:19:06;7.07;;;4.22;;
25319;SDS011;13256;49.012;8.610;2023-12-04T17:21:41;8.88;;;3.63;;
25319;SDS011;13256;49.012;8.610;2023-12-04T17:24:08;6.60;;;4.55;;
25319;SDS011;13256;49.012;8.610;2023-12-04T17:26:46;10.00;;;4.78;;
25319;SDS011;13256;49.012;8.610;2023-12-04T17:29:21;10.20;;;5.57;;
25319;SDS011;13256;49.012;8.610;2023-12-04T17:31:47;10.65;;;4.10;;
25319;SDS011;13256;49.012;8.610;2023-12-04T17:38:40;11.32;;;5.78;;
25319;SDS011;13256;49.012;8.610;2023-12-04T17:41:14;8.63;;;4.90;;
25319;SDS011;13256;49.012;8.610;2023-12-04T17:43:45;9.63;;;4.93;;
25319;SDS011;13256;49.012;8.610;2023-12-04T17:46:11;11.70;;;5.68;;
25319;SDS011;13256;49.012;8.610;2023-12-04T17:48:45;15.20;;;5.45;;
25319;SDS011;13256;49.012;8.610;2023-12-04T17:51:15;9.18;;;5.00;;
25319;SDS011;13256;49.012;8.610;2023-12-04T17:56:53;15.57;;;5.65;;
25319;SDS011;13256;49.012;8.610;2023-12-04T17:59:22;14.55;;;8.43;;
25319;SDS011;13256;49.012;8.610;2023-12-04T18:01:52;13.27;;;6.47;;
25319;SDS011;13256;49.012;8.610;2023-12-04T18:04:19;5.70;;;2.92;;
25319;SDS011;13256;49.012;8.610;2023-12-04T18:06:54;9.50;;;4.32;;
25319;SDS011;13256;49.012;8.610;2023-12-04T18:12:19;10.50;;;4.45;;
25319;SDS011;13256;49.012;8.610;2023-12-04T18:14:47;6.65;;;3.58;;
25319;SDS011;13256;49.012;8.610;2023-12-04T18:17:17;10.85;;;4.72;;
25319;SDS011;13256;49.012;8.610;2023-12-04T18:19:47;9.43;;;3.97;;
25319;SDS011;13256;49.012;8.610;2023-12-04T18:22:19;7.68;;;3.92;;
25319;SDS011;13256;49.012;8.610;2023-12-04T18:24:53;7.22;;;3.67;;
25319;SDS011;13256;49.012;8.610;2023-12-04T18:27:23;6.90;;;3.92;;
25319;SDS011;13256;49.012;8.610;2023-12-04T18:29:51;6.78;;;3.30;;
25319;SDS011;13256;49.012;8.610;2023-12-04T18:32:19;4.78;;;3.25;;
25319;SDS011;13256;49.012;8.610;2023-12-04T18:45:07;4.75;;;2.80;;
25319;SDS011;13256;49.012;8.610;2023-12-04T18:47:47;4.80;;;2.63;;
25319;SDS011;13256;49.012;8.610;2023-12-04T18:50:51;5.90;;;3.03;;
25319;SDS011;13256;49.012;8.610;2023-12-04T18:56:16;5.32;;;2.90;;
25319;SDS011;13256;49.012;8.610;2023-12-04T18:58:47;5.00;;;3.13;;
25319;SDS011;13256;49.012;8.610;2023-12-04T19:05:05;3.45;;;2.47;;
25319;SDS011;13256;49.012;8.610;2023-12-04T19:10:51;5.07;;;3.10;;
25319;SDS011;13256;49.012;8.610;2023-12-04T19:13:22;7.35;;;3.95;;
25319;SDS011;13256;49.012;8.610;2023-12-04T19:16:19;4.53;;;2.97;;
25319;SDS011;13256;49.012;8.610;2023-12-04T19:18:46;5.53;;;3.42;;
25319;SDS011;13256;49.012;8.610;2023-12-04T19:21:28;6.13;;;3.42;;
25319;SDS011;13256;49.012;8.610;2023-12-04T19:24:07;60.03;;;21.42;;
25319;SDS011;13256;49.012;8.610;2023-12-04T19:27:12;30.08;;;10.80;;
25319;SDS011;13256;49.012;8.610;2023-12-04T19:33:24;35.25;;;13.90;;
25319;SDS011;13256;49.012;8.610;2023-12-04T19:38:28;5.70;;;4.20;;
25319;SDS011;13256;49.012;8.610;2023-12-04T19:40:56;8.93;;;3.30;;
25319;SDS011;13256;49.012;8.610;2023-12-04T19:43:24;7.15;;;4.13;;
25319;SDS011;13256;49.012;8.610;2023-12-04T19:45:55;5.40;;;3.00;;
25319;SDS011;13256;49.012;8.610;2023-12-04T19:48:29;6.55;;;3.80;;
25319;SDS011;13256;49.012;8.610;2023-12-04T19:51:11;7.20;;;3.50;;
25319;SDS011;13256;49.012;8.610;2023-12-04T19:54:09;6.95;;;3.50;;
25319;SDS011;13256;49.012;8.610;2023-12-04T19:56:37;8.98;;;3.45;;
25319;SDS011;13256;49.012;8.610;2023-12-04T19:59:08;5.10;;;2.75;;
25319;SDS011;13256;49.012;8.610;2023-12-04T20:01:41;6.57;;;3.25;;
25319;SDS011;13256;49.012;8.610;2023-12-04T20:04:10;4.07;;;2.65;;
25319;SDS011;13256;49.012;8.610;2023-12-04T20:06:44;6.47;;;2.63;;
25319;SDS011;13256;49.012;8.610;2023-12-04T20:09:14;6.38;;;2.83;;
25319;SDS011;13256;49.012;8.610;2023-12-04T20:14:38;5.85;;;2.78;;
25319;SDS011;13256;49.012;8.610;2023-12-04T20:17:06;4.22;;;2.45;;
25319;SDS011;13256;49.012;8.610;2023-12-04T20:19:45;4.68;;;2.95;;
25319;SDS011;13256;49.012;8.610;2023-12-04T20:22:15;6.28;;;2.90;;
25319;SDS011;13256;49.012;8.610;2023-12-04T20:24:46;5.18;;;3.25;;
25319;SDS011;13256;49.012;8.610;2023-12-04T20:27:41;6.80;;;3.20;;
25319;SDS011;13256;49.012;8.610;2023-12-04T20:30:13;7.00;;;3.35;;
25319;SDS011;13256;49.012;8.610;2023-12-04T20:32:45;5.10;;;3.15;;